createdAt,value
2023-09-22T00:11:51.050Z,99141.09
2023-09-22T00:26:55.081Z,99175.00
2023-09-22T00:42:00.979Z,99188.16
2023-09-22T00:57:07.292Z,99191.78
2023-09-22T01:12:11.003Z,99183.09
2023-09-22T01:27:17.019Z,99197.84
2023-09-22T01:42:20.098Z,99206.44
2023-09-22T01:57:23.472Z,99221.34
2023-09-22T02:12:26.935Z,99232.25
2023-09-22T02:27:31.440Z,99221.28
2023-09-22T02:42:34.952Z,99207.31
2023-09-22T02:57:38.606Z,99216.53
2023-09-22T03:12:44.769Z,99235.28
2023-09-22T03:27:48.220Z,99252.38
2023-09-22T03:42:55.142Z,99235.28
2023-09-22T03:57:58.886Z,99268.59
2023-09-22T04:13:02.429Z,99288.97
2023-09-22T04:28:09.242Z,99312.28
2023-09-22T04:43:12.865Z,99296.47
2023-09-22T04:58:17.296Z,99307.69
2023-09-22T05:13:21.758Z,99272.97
2023-09-22T05:28:27.936Z,99271.28
2023-09-22T05:43:31.450Z,99338.28
2023-09-22T05:58:35.194Z,99349.66
2023-09-22T06:13:39.535Z,99330.41
2023-09-22T06:28:46.222Z,99366.19
2023-09-22T06:43:55.589Z,99373.28
2023-09-22T06:59:05.254Z,99399.88
2023-09-22T07:14:13.176Z,99405.94
2023-09-22T07:29:16.490Z,99428.16
2023-09-22T07:44:20.249Z,99435.72
2023-09-22T07:59:25.500Z,99436.59
2023-09-22T08:14:46.050Z,99444.31
2023-09-22T08:29:54.580Z,99430.59
2023-09-22T08:44:58.200Z,99453.94
2023-09-22T09:00:02.855Z,99452.19
2023-09-22T09:15:16.034Z,99442.56
2023-09-22T09:30:23.404Z,99434.19
2023-09-22T09:45:54.433Z,99430.13
2023-09-22T10:01:03.937Z,99435.84
2023-09-22T10:16:08.448Z,99435.75
2023-09-22T10:31:15.354Z,99434.38
2023-09-22T10:46:19.275Z,99451.34
2023-09-22T11:01:22.913Z,99439.97
2023-09-22T11:16:28.794Z,99453.44
2023-09-22T11:31:33.603Z,99432.16
2023-09-22T11:46:41.799Z,99427.31
2023-09-22T12:01:51.210Z,99409.88
2023-09-22T12:16:57.917Z,99379.81
2023-09-22T12:32:01.714Z,99374.25
2023-09-22T12:47:07.787Z,99395.38
2023-09-22T13:02:11.088Z,99400.78
2023-09-22T13:17:16.130Z,99374.97
2023-09-22T13:32:23.562Z,99366.59
2023-09-22T13:47:35.839Z,99351.53
2023-09-22T14:02:40.894Z,99340.59
2023-09-22T14:17:49.390Z,99342.06
2023-09-22T14:32:52.698Z,99334.47
2023-09-22T14:47:57.199Z,99339.94
2023-09-22T15:03:04.937Z,99339.09
2023-09-22T15:18:14.272Z,99356.56
2023-09-22T15:33:17.561Z,99361.47
2023-09-22T15:48:40.907Z,99363.00
2023-09-22T16:03:51.917Z,99337.59
2023-09-22T16:18:55.982Z,99366.69
2023-09-22T16:33:59.062Z,99367.28
2023-09-22T16:49:02.376Z,99355.19
2023-09-22T17:04:13.665Z,99529.09
2023-09-22T17:19:20.632Z,99520.19
2023-09-22T17:34:24.175Z,99493.88
2023-09-22T17:49:30.286Z,99566.75
2023-09-22T18:04:33.839Z,99553.47
2023-09-22T18:19:42.316Z,99579.03
2023-09-22T18:34:46.049Z,99545.25
2023-09-22T18:49:49.560Z,99563.66
2023-09-22T19:04:59.662Z,99626.66
2023-09-22T19:20:08.124Z,99660.94
2023-09-22T19:35:12.449Z,99693.22
2023-09-22T19:50:17.963Z,99691.53
2023-09-22T20:05:21.365Z,99723.72
2023-09-22T20:20:29.796Z,99754.25
2023-09-22T20:35:33.164Z,99752.88
2023-09-22T20:50:36.607Z,99763.13
2023-09-22T21:05:41.003Z,99778.03
2023-09-22T21:21:19.813Z,99799.81
2023-09-22T21:36:26.040Z,99817.88
2023-09-22T21:51:32.668Z,99833.16
2023-09-22T22:06:48.650Z,99842.38
2023-09-22T22:21:52.439Z,99867.19
2023-09-22T22:36:56.079Z,99876.00
2023-09-22T22:52:02.042Z,99881.75
2023-09-22T23:07:08.537Z,99934.44
2023-09-22T23:22:12.424Z,99980.09
2023-09-22T23:37:16.354Z,100001.13
2023-09-22T23:52:19.622Z,99997.06
